createdAt,value
2022-12-06T00:01:14.517Z,16.11
2022-12-06T00:03:42.266Z,16.05
2022-12-06T00:06:14.236Z,15.88
2022-12-06T00:08:41.868Z,15.84
2022-12-06T00:11:19.296Z,15.84
2022-12-06T00:13:47.010Z,15.91
2022-12-06T00:16:15.590Z,15.91
2022-12-06T00:18:43.179Z,15.90
2022-12-06T00:21:11.409Z,15.82
2022-12-06T00:23:39.376Z,15.85
2022-12-06T00:26:07.084Z,15.88
2022-12-06T00:28:34.205Z,15.87
2022-12-06T00:31:02.112Z,15.92
2022-12-06T00:33:29.472Z,15.97
2022-12-06T00:36:00.957Z,15.89
2022-12-06T00:38:29.184Z,15.96
2022-12-06T00:41:04.488Z,15.96
2022-12-06T00:43:31.889Z,15.97
2022-12-06T00:45:59.076Z,15.98
2022-12-06T00:48:26.152Z,15.95
2022-12-06T00:50:53.243Z,15.90
2022-12-06T00:53:20.673Z,15.93
2022-12-06T00:55:47.848Z,15.98
2022-12-06T00:58:15.000Z,16.00
2022-12-06T01:00:42.292Z,16.04
2022-12-06T01:03:09.593Z,15.99
2022-12-06T01:05:45.648Z,15.92
2022-12-06T01:08:13.384Z,15.98
2022-12-06T01:10:40.946Z,15.95
2022-12-06T01:13:08.292Z,15.96
2022-12-06T01:15:38.542Z,15.89
2022-12-06T01:18:05.727Z,15.85
2022-12-06T01:20:32.691Z,15.86
2022-12-06T01:23:02.033Z,15.80
2022-12-06T01:25:35.620Z,15.78
2022-12-06T01:28:03.342Z,15.72
2022-12-06T01:30:32.880Z,15.74
2022-12-06T01:33:01.148Z,15.68
2022-12-06T01:35:28.067Z,15.64
2022-12-06T01:37:55.008Z,15.66
2022-12-06T01:40:21.908Z,15.68
2022-12-06T01:42:48.936Z,15.71
2022-12-06T01:45:15.877Z,15.61
2022-12-06T01:47:44.124Z,15.61
2022-12-06T01:50:11.012Z,15.58
2022-12-06T01:52:58.143Z,15.57
2022-12-06T01:55:27.453Z,15.54
2022-12-06T01:57:57.547Z,15.56
2022-12-06T02:00:24.436Z,15.55
2022-12-06T02:02:51.488Z,15.53
2022-12-06T02:05:18.472Z,15.57
2022-12-06T02:07:46.621Z,15.53
2022-12-06T02:10:13.807Z,15.56
2022-12-06T02:12:40.747Z,15.56
2022-12-06T02:15:07.991Z,15.59
2022-12-06T02:17:41.329Z,15.51
2022-12-06T02:20:26.973Z,15.49
2022-12-06T02:22:56.830Z,15.42
2022-12-06T02:25:34.349Z,15.45
2022-12-06T02:28:07.930Z,15.45
2022-12-06T02:30:47.788Z,15.46
2022-12-06T02:33:21.944Z,15.46
2022-12-06T02:35:53.762Z,15.49
2022-12-06T02:38:29.453Z,15.42
2022-12-06T02:41:02.044Z,15.38
2022-12-06T02:43:33.090Z,15.45
2022-12-06T02:46:02.715Z,15.37
2022-12-06T02:48:31.837Z,15.37
2022-12-06T02:51:06.154Z,15.30
2022-12-06T02:53:34.607Z,15.21
2022-12-06T02:56:01.933Z,15.39
2022-12-06T02:58:28.883Z,15.34
2022-12-06T03:01:03.050Z,15.40
2022-12-06T03:03:41.082Z,15.33
2022-12-06T03:06:12.737Z,15.35
2022-12-06T03:08:55.821Z,15.38
2022-12-06T03:11:28.735Z,15.33
2022-12-06T03:14:19.145Z,15.38
2022-12-06T03:16:59.182Z,15.37
2022-12-06T03:19:35.233Z,15.40
2022-12-06T03:22:25.440Z,15.43
2022-12-06T03:25:05.197Z,15.40
2022-12-06T03:27:39.664Z,15.31
2022-12-06T03:30:14.059Z,15.29
2022-12-06T03:32:45.577Z,15.31
2022-12-06T03:35:21.719Z,15.35
2022-12-06T03:38:06.019Z,15.32
2022-12-06T03:41:18.789Z,15.27
2022-12-06T03:44:03.351Z,15.28
2022-12-06T03:46:45.075Z,15.30
2022-12-06T03:49:23.583Z,15.32
2022-12-06T03:54:54.332Z,15.27
2022-12-06T03:57:29.028Z,15.26
2022-12-06T04:00:21.105Z,15.23
2022-12-06T04:02:48.100Z,15.26
2022-12-06T04:05:15.042Z,15.28
2022-12-06T04:07:45.278Z,15.28
2022-12-06T04:10:12.367Z,15.26
2022-12-06T04:12:57.817Z,15.24
2022-12-06T04:15:24.855Z,15.17
2022-12-06T04:18:10.451Z,15.19
2022-12-06T04:21:11.418Z,15.18
2022-12-06T04:23:39.990Z,15.10
2022-12-06T04:26:08.230Z,15.19
2022-12-06T04:28:53.617Z,15.19
2022-12-06T04:31:39.475Z,15.20
2022-12-06T04:34:25.601Z,15.26
2022-12-06T04:37:11.604Z,15.23
2022-12-06T04:39:38.568Z,15.19
2022-12-06T04:42:24.180Z,15.27
2022-12-06T04:44:51.671Z,15.26
2022-12-06T04:47:18.537Z,15.26
2022-12-06T04:49:45.456Z,15.26
2022-12-06T04:52:12.611Z,15.27
2022-12-06T04:54:39.698Z,15.27
2022-12-06T04:57:11.432Z,15.25
2022-12-06T05:02:24.356Z,15.20
2022-12-06T05:04:51.290Z,15.23
2022-12-06T05:07:18.210Z,15.28
2022-12-06T05:09:45.119Z,15.22
2022-12-06T05:12:12.036Z,15.19
2022-12-06T05:14:39.027Z,15.17
2022-12-06T05:17:08.975Z,15.17
2022-12-06T05:19:35.949Z,15.13
2022-12-06T05:22:02.939Z,15.20
2022-12-06T05:24:30.005Z,15.26
2022-12-06T05:26:58.123Z,15.25
2022-12-06T05:29:25.111Z,15.24
2022-12-06T05:31:52.031Z,15.22
2022-12-06T05:34:19.153Z,15.19
2022-12-06T05:36:46.242Z,15.13
2022-12-06T05:39:13.430Z,15.09
2022-12-06T05:41:40.421Z,15.11
2022-12-06T05:44:07.673Z,15.03
2022-12-06T05:46:34.745Z,14.98
2022-12-06T05:49:01.750Z,14.92
2022-12-06T05:51:28.579Z,14.98
2022-12-06T05:53:55.476Z,14.94
2022-12-06T05:56:22.332Z,14.92
2022-12-06T05:58:49.318Z,14.89
2022-12-06T06:01:18.001Z,14.88
2022-12-06T06:03:47.770Z,14.87
2022-12-06T06:06:15.322Z,14.92
2022-12-06T06:08:42.300Z,14.88
2022-12-06T06:11:09.440Z,14.91
2022-12-06T06:13:36.492Z,14.94
2022-12-06T06:16:03.538Z,14.97
2022-12-06T06:18:30.761Z,14.96
2022-12-06T06:20:59.302Z,14.98
2022-12-06T06:23:26.982Z,14.95
2022-12-06T06:25:54.536Z,14.99
2022-12-06T06:28:22.490Z,14.99
2022-12-06T06:30:49.897Z,14.98
2022-12-06T06:33:17.152Z,14.99
2022-12-06T06:35:47.272Z,15.02
2022-12-06T06:38:14.380Z,14.98
2022-12-06T06:40:41.420Z,14.99
2022-12-06T06:43:20.957Z,14.98
2022-12-06T06:45:55.423Z,14.99
2022-12-06T06:48:23.404Z,14.89
2022-12-06T06:50:56.760Z,14.87
2022-12-06T06:53:25.364Z,14.90
2022-12-06T06:55:54.162Z,14.76
2022-12-06T06:58:21.362Z,14.85
2022-12-06T07:00:52.912Z,14.90
2022-12-06T07:03:20.919Z,14.93
2022-12-06T07:05:56.188Z,14.96
2022-12-06T07:08:23.697Z,15.02
2022-12-06T07:10:50.866Z,15.03
2022-12-06T07:13:22.243Z,15.10
2022-12-06T07:15:49.426Z,15.00
2022-12-06T07:18:19.594Z,15.01
2022-12-06T07:20:47.239Z,14.98
2022-12-06T07:23:14.392Z,15.04
2022-12-06T07:25:41.664Z,15.08
2022-12-06T07:28:08.696Z,15.11
2022-12-06T07:30:36.164Z,15.10
2022-12-06T07:33:03.609Z,15.10
2022-12-06T07:35:55.465Z,15.17
2022-12-06T07:38:27.815Z,15.17
2022-12-06T07:41:04.551Z,15.13
2022-12-06T07:43:50.441Z,15.18
2022-12-06T07:46:17.696Z,15.18
2022-12-06T07:48:44.854Z,15.13
2022-12-06T07:51:11.800Z,15.21
2022-12-06T07:53:38.937Z,15.24
2022-12-06T07:56:06.527Z,15.29
2022-12-06T07:58:33.571Z,15.33
2022-12-06T08:01:05.583Z,15.36
2022-12-06T08:03:32.638Z,15.35
2022-12-06T08:06:00.063Z,15.41
2022-12-06T08:08:29.033Z,15.43
2022-12-06T08:11:01.822Z,15.50
2022-12-06T08:13:36.447Z,15.48
2022-12-06T08:16:13.252Z,15.55
2022-12-06T08:18:41.427Z,15.59
2022-12-06T08:21:20.181Z,15.62
2022-12-06T08:23:47.477Z,15.63
2022-12-06T08:26:22.235Z,15.76
2022-12-06T08:28:52.072Z,15.59
2022-12-06T08:31:24.229Z,15.77
2022-12-06T08:33:51.367Z,15.91
2022-12-06T08:36:30.102Z,15.99
2022-12-06T08:38:59.647Z,16.01
2022-12-06T08:41:51.337Z,16.12
2022-12-06T08:44:21.348Z,16.15
2022-12-06T08:46:53.656Z,16.19
2022-12-06T08:49:20.708Z,16.39
2022-12-06T08:51:50.292Z,16.53
2022-12-06T08:54:19.169Z,16.66
2022-12-06T08:56:46.662Z,16.90
2022-12-06T08:59:14.202Z,17.24
2022-12-06T09:01:41.538Z,17.59
2022-12-06T09:04:11.055Z,17.60
2022-12-06T09:06:39.257Z,17.86
2022-12-06T09:09:09.832Z,18.21
2022-12-06T09:11:39.953Z,18.36
2022-12-06T09:14:21.175Z,18.63
2022-12-06T09:16:56.098Z,18.91
2022-12-06T09:19:23.992Z,19.15
2022-12-06T09:21:56.093Z,19.41
2022-12-06T09:24:23.544Z,19.92
2022-12-06T09:26:50.604Z,20.09
2022-12-06T09:29:18.274Z,19.99
2022-12-06T09:31:45.848Z,20.49
2022-12-06T09:34:13.495Z,20.43
2022-12-06T09:36:45.671Z,20.39
2022-12-06T09:39:19.067Z,20.83
2022-12-06T09:41:58.362Z,20.81
2022-12-06T09:44:26.770Z,20.98
2022-12-06T09:46:59.908Z,20.88
2022-12-06T09:49:44.410Z,21.29
2022-12-06T09:52:26.702Z,21.59
2022-12-06T09:55:00.305Z,21.62
2022-12-06T09:57:36.877Z,21.85
2022-12-06T10:00:11.822Z,22.15
2022-12-06T10:02:45.824Z,22.54
2022-12-06T10:05:21.812Z,22.78
2022-12-06T10:08:09.663Z,22.74
2022-12-06T10:11:08.437Z,22.87
2022-12-06T10:14:03.752Z,22.93
2022-12-06T10:16:37.285Z,23.36
2022-12-06T10:19:20.004Z,23.77
2022-12-06T10:21:49.819Z,24.20
2022-12-06T10:24:25.668Z,24.67
2022-12-06T10:26:57.233Z,24.60
2022-12-06T10:29:38.188Z,24.79
2022-12-06T10:32:21.525Z,24.60
2022-12-06T10:34:59.589Z,24.62
2022-12-06T10:37:36.360Z,24.29
2022-12-06T10:40:04.369Z,24.68
2022-12-06T10:42:33.528Z,24.69
2022-12-06T10:45:42.836Z,24.70
2022-12-06T10:48:36.318Z,24.62
2022-12-06T10:51:10.080Z,24.18
2022-12-06T10:53:47.433Z,24.04
2022-12-06T10:56:21.033Z,23.79
2022-12-06T10:58:54.027Z,22.97
2022-12-06T11:01:28.734Z,22.46
2022-12-06T11:04:08.608Z,23.02
2022-12-06T11:06:39.231Z,23.22
2022-12-06T11:09:27.030Z,23.25
2022-12-06T11:11:57.168Z,23.52
2022-12-06T11:14:31.971Z,23.61
2022-12-06T11:17:07.330Z,23.45
2022-12-06T11:19:36.781Z,23.34
2022-12-06T11:22:22.727Z,23.43
2022-12-06T11:24:52.562Z,23.68
2022-12-06T11:27:38.375Z,23.84
2022-12-06T11:30:18.476Z,23.47
2022-12-06T11:32:51.025Z,23.51
2022-12-06T11:35:25.915Z,23.32
2022-12-06T11:37:55.502Z,23.01
2022-12-06T11:40:34.141Z,23.51
2022-12-06T11:43:05.529Z,23.31
2022-12-06T11:45:33.918Z,23.32
2022-12-06T11:48:20.926Z,23.53
2022-12-06T11:50:49.236Z,23.23
2022-12-06T11:53:35.774Z,23.14
2022-12-06T11:56:15.208Z,23.09
2022-12-06T11:58:49.643Z,22.64
2022-12-06T12:01:16.902Z,23.24
2022-12-06T12:03:45.293Z,23.10
2022-12-06T12:06:26.656Z,23.19
2022-12-06T12:09:25.114Z,23.42
2022-12-06T12:12:01.665Z,23.22
2022-12-06T12:14:34.197Z,23.15
2022-12-06T12:17:02.622Z,22.97
2022-12-06T12:19:34.943Z,23.13
2022-12-06T12:22:14.842Z,23.33
2022-12-06T12:27:40.764Z,22.92
2022-12-06T12:30:20.168Z,22.80
2022-12-06T12:32:48.047Z,22.78
2022-12-06T12:35:21.666Z,22.70
2022-12-06T12:37:54.172Z,22.96
2022-12-06T12:40:29.654Z,23.07
2022-12-06T12:42:58.538Z,23.20
2022-12-06T12:45:30.399Z,23.35
2022-12-06T12:48:04.760Z,23.28
2022-12-06T12:50:35.054Z,23.53
2022-12-06T12:53:05.016Z,23.26
2022-12-06T12:55:32.974Z,23.32
2022-12-06T12:58:01.230Z,23.56
2022-12-06T13:00:32.958Z,23.81
2022-12-06T13:03:50.137Z,23.96
2022-12-06T13:06:35.815Z,24.39
2022-12-06T13:09:04.252Z,25.02
2022-12-06T13:11:42.061Z,25.35
2022-12-06T13:14:16.287Z,25.66
2022-12-06T13:16:52.957Z,25.97
2022-12-06T13:19:21.581Z,26.45
2022-12-06T13:21:55.130Z,26.96
2022-12-06T13:24:31.709Z,26.90
2022-12-06T13:27:06.316Z,26.91
2022-12-06T13:29:38.720Z,26.69
2022-12-06T13:32:08.562Z,27.07
2022-12-06T13:34:38.010Z,27.08
2022-12-06T13:37:25.204Z,27.54
2022-12-06T13:39:52.545Z,27.40
2022-12-06T13:42:42.744Z,26.86
2022-12-06T13:45:35.228Z,26.47
2022-12-06T13:48:02.343Z,26.33
2022-12-06T13:50:32.204Z,26.45
2022-12-06T13:53:02.827Z,26.19
2022-12-06T13:55:32.419Z,26.14
2022-12-06T13:57:59.550Z,25.63
2022-12-06T14:00:43.125Z,26.04
2022-12-06T14:03:22.229Z,25.80
2022-12-06T14:06:12.146Z,25.88
2022-12-06T14:09:09.551Z,25.84
2022-12-06T14:11:43.085Z,26.06
2022-12-06T14:14:18.641Z,25.89
2022-12-06T14:16:51.589Z,25.12
2022-12-06T14:19:28.482Z,24.96
2022-12-06T14:22:11.642Z,24.66
2022-12-06T14:24:47.276Z,23.86
2022-12-06T14:27:17.216Z,23.81
2022-12-06T14:30:03.923Z,23.77
2022-12-06T14:32:47.509Z,24.03
2022-12-06T14:35:38.849Z,24.18
2022-12-06T14:38:24.060Z,24.11
2022-12-06T14:41:13.318Z,24.52
2022-12-06T14:43:45.112Z,24.66
2022-12-06T14:46:16.370Z,24.72
2022-12-06T14:49:16.828Z,24.72
2022-12-06T14:51:51.820Z,24.84
2022-12-06T14:54:33.786Z,24.71
2022-12-06T14:57:15.992Z,24.57
2022-12-06T15:00:14.426Z,24.57
2022-12-06T15:02:33.871Z,24.20
2022-12-06T15:05:09.689Z,24.32
2022-12-06T15:07:50.956Z,23.67
2022-12-06T15:10:28.794Z,23.34
2022-12-06T15:12:56.233Z,22.90
2022-12-06T15:15:57.391Z,22.39
2022-12-06T15:18:32.938Z,22.40
2022-12-06T15:21:06.635Z,22.30
2022-12-06T15:23:39.568Z,21.95
2022-12-06T15:26:11.505Z,21.97
2022-12-06T15:28:46.708Z,21.66
2022-12-06T15:31:30.251Z,21.50
2022-12-06T15:34:11.128Z,21.42
2022-12-06T15:36:43.456Z,21.24
2022-12-06T15:39:16.165Z,21.12
2022-12-06T15:41:56.119Z,20.66
2022-12-06T15:44:27.125Z,20.71
2022-12-06T15:46:54.523Z,20.18
2022-12-06T15:49:23.271Z,20.35
2022-12-06T15:51:50.385Z,20.31
2022-12-06T15:54:26.019Z,20.02
2022-12-06T15:56:53.472Z,20.06
2022-12-06T15:59:26.923Z,20.13
2022-12-06T16:01:54.224Z,20.07
2022-12-06T16:04:22.594Z,19.84
2022-12-06T16:06:59.797Z,19.91
2022-12-06T16:12:24.018Z,19.92
2022-12-06T16:15:00.664Z,19.60
2022-12-06T16:17:33.639Z,19.75
2022-12-06T16:20:25.157Z,19.80
2022-12-06T16:26:01.117Z,19.68
2022-12-06T16:28:28.236Z,19.74
2022-12-06T16:30:55.484Z,19.77
2022-12-06T16:33:42.228Z,19.81
2022-12-06T16:36:15.656Z,19.75
2022-12-06T16:38:45.206Z,19.73
2022-12-06T16:41:24.549Z,19.63
2022-12-06T16:43:55.336Z,19.62
2022-12-06T16:46:33.099Z,19.42
2022-12-06T16:49:22.680Z,19.44
2022-12-06T16:52:02.701Z,19.41
2022-12-06T16:54:33.399Z,19.35
2022-12-06T16:57:05.319Z,19.21
2022-12-06T16:59:35.038Z,19.20
2022-12-06T17:02:02.062Z,19.20
2022-12-06T17:04:31.770Z,19.32
2022-12-06T17:07:01.378Z,19.28
2022-12-06T17:09:33.939Z,19.22
2022-12-06T17:12:04.670Z,19.11
2022-12-06T17:14:31.789Z,18.99
2022-12-06T17:17:04.055Z,19.08
2022-12-06T17:19:35.198Z,19.12
2022-12-06T17:22:02.499Z,18.94
2022-12-06T17:24:29.513Z,18.83
2022-12-06T17:26:56.549Z,18.88
2022-12-06T17:29:23.942Z,18.88
2022-12-06T17:31:53.795Z,19.05
2022-12-06T17:34:22.212Z,18.98
2022-12-06T17:36:49.621Z,18.91
2022-12-06T17:39:18.262Z,18.80
2022-12-06T17:42:03.876Z,18.91
2022-12-06T17:44:31.076Z,18.78
2022-12-06T17:46:58.014Z,18.68
2022-12-06T17:49:26.627Z,18.70
2022-12-06T17:51:54.064Z,18.80
2022-12-06T17:54:21.999Z,18.59
2022-12-06T17:56:52.935Z,18.54
2022-12-06T17:59:24.273Z,18.60
2022-12-06T18:02:14.137Z,18.56
2022-12-06T18:04:39.560Z,18.66
2022-12-06T18:07:09.427Z,18.55
2022-12-06T18:09:36.637Z,18.27
2022-12-06T18:12:03.838Z,18.41
2022-12-06T18:14:31.017Z,18.38
2022-12-06T18:17:00.931Z,18.49
2022-12-06T18:19:28.151Z,18.50
2022-12-06T18:21:55.302Z,18.51
2022-12-06T18:24:24.627Z,18.37
2022-12-06T18:26:54.823Z,18.52
2022-12-06T18:29:22.988Z,18.64
2022-12-06T18:31:50.569Z,18.34
2022-12-06T18:34:18.089Z,18.42
2022-12-06T18:36:45.328Z,18.46
2022-12-06T18:39:15.310Z,18.46
2022-12-06T18:41:45.766Z,18.52
2022-12-06T18:44:13.220Z,18.43
2022-12-06T18:46:42.776Z,18.48
2022-12-06T18:49:11.018Z,18.51
2022-12-06T18:51:39.068Z,18.54
2022-12-06T18:54:09.212Z,18.54
2022-12-06T18:56:37.559Z,18.49
2022-12-06T18:59:06.554Z,18.49
2022-12-06T19:01:47.158Z,18.48
2022-12-06T19:04:19.508Z,18.46
2022-12-06T19:06:46.792Z,18.52
2022-12-06T19:09:15.164Z,18.54
2022-12-06T19:11:43.592Z,18.44
2022-12-06T19:14:10.992Z,18.50
2022-12-06T19:16:39.846Z,18.49
2022-12-06T19:19:14.283Z,18.45
2022-12-06T19:21:44.227Z,18.47
2022-12-06T19:24:12.104Z,18.42
2022-12-06T19:26:39.312Z,18.43
2022-12-06T19:29:06.358Z,18.41
2022-12-06T19:31:33.832Z,18.39
2022-12-06T19:34:01.394Z,18.36
2022-12-06T19:36:29.898Z,18.33
2022-12-06T19:39:01.153Z,18.31
2022-12-06T19:41:28.262Z,18.24
2022-12-06T19:44:14.037Z,18.21
2022-12-06T19:46:47.796Z,18.19
2022-12-06T19:49:27.079Z,18.16
2022-12-06T19:55:45.553Z,18.08
2022-12-06T19:58:56.510Z,18.00
2022-12-06T20:12:14.211Z,17.91
2022-12-06T20:22:08.687Z,17.77
2022-12-06T20:25:23.214Z,17.77
2022-12-06T20:35:05.061Z,17.61
2022-12-06T20:40:57.152Z,17.57
2022-12-06T20:43:28.144Z,17.55
2022-12-06T20:46:25.780Z,17.52
2022-12-06T20:49:26.847Z,17.54
2022-12-06T21:07:57.001Z,17.40
2022-12-06T21:14:37.779Z,17.25
2022-12-06T21:17:47.969Z,17.21
2022-12-06T21:23:54.845Z,17.11
2022-12-06T21:30:24.070Z,17.06
2022-12-06T21:33:35.411Z,17.03
2022-12-06T21:36:58.148Z,17.00
2022-12-06T21:39:40.440Z,16.95
2022-12-06T21:42:35.203Z,17.00
2022-12-06T21:46:00.861Z,16.92
2022-12-06T21:49:31.082Z,16.93
2022-12-06T21:52:59.662Z,16.87
2022-12-06T22:00:03.005Z,16.82
2022-12-06T22:03:38.940Z,16.78
2022-12-06T22:07:03.508Z,16.72
2022-12-06T22:12:44.658Z,16.61
2022-12-06T22:18:47.734Z,16.55
2022-12-06T22:21:35.605Z,16.55
2022-12-06T22:34:53.690Z,16.50
2022-12-06T22:48:29.390Z,16.32
2022-12-06T22:52:22.999Z,16.29
2022-12-06T22:58:00.994Z,16.18
2022-12-06T23:00:34.335Z,16.18
2022-12-06T23:10:04.284Z,16.13
2022-12-06T23:16:38.960Z,16.14
2022-12-06T23:19:41.590Z,16.08
2022-12-06T23:25:42.431Z,16.04
2022-12-06T23:28:10.565Z,15.98
2022-12-06T23:30:53.718Z,15.95
2022-12-06T23:33:32.444Z,15.92
2022-12-06T23:48:40.414Z,15.80
2022-12-06T23:55:09.572Z,15.73
